createdAt,value
2023-03-03T00:00:55.355Z,18.30
2023-03-03T00:03:28.076Z,14.40
2023-03-03T00:05:58.992Z,15.02
2023-03-03T00:08:31.797Z,15.35
2023-03-03T00:11:01.307Z,14.98
2023-03-03T00:13:43.820Z,16.08
2023-03-03T00:16:24.831Z,14.98
2023-03-03T00:19:01.659Z,15.57
2023-03-03T00:21:36.694Z,18.33
2023-03-03T00:24:27.184Z,19.25
2023-03-03T00:26:58.504Z,17.40
2023-03-03T00:29:31.643Z,18.95
2023-03-03T00:32:08.297Z,18.90
2023-03-03T00:34:39.738Z,19.17
2023-03-03T00:37:24.814Z,19.15
2023-03-03T00:39:53.877Z,19.50
2023-03-03T00:42:25.888Z,19.77
2023-03-03T00:44:59.111Z,19.30
2023-03-03T00:47:39.998Z,19.00
2023-03-03T00:50:07.857Z,20.67
2023-03-03T00:52:41.091Z,23.15
2023-03-03T00:55:10.849Z,21.40
2023-03-03T00:57:41.593Z,22.13
2023-03-03T01:00:20.075Z,21.48
2023-03-03T01:02:50.158Z,21.17
2023-03-03T01:05:19.975Z,23.17
2023-03-03T01:07:50.104Z,18.92
2023-03-03T01:10:18.762Z,20.63
2023-03-03T01:12:46.382Z,21.55
2023-03-03T01:15:16.336Z,21.08
2023-03-03T01:20:32.496Z,23.30
2023-03-03T01:23:07.122Z,22.63
2023-03-03T01:25:35.450Z,20.17
2023-03-03T01:28:04.907Z,23.27
2023-03-03T01:30:34.626Z,22.85
2023-03-03T01:33:04.264Z,19.35
2023-03-03T01:35:33.283Z,20.88
2023-03-03T01:38:02.894Z,19.15
2023-03-03T01:40:33.022Z,20.27
2023-03-03T01:43:02.470Z,20.08
2023-03-03T01:45:33.158Z,18.67
2023-03-03T01:48:08.799Z,18.25
2023-03-03T01:50:42.517Z,19.83
2023-03-03T01:53:19.119Z,21.05
2023-03-03T01:55:51.742Z,21.33
2023-03-03T01:58:27.921Z,20.35
2023-03-03T02:01:05.845Z,20.55
2023-03-03T02:03:36.803Z,23.17
2023-03-03T02:06:09.734Z,21.73
2023-03-03T02:08:43.453Z,22.42
2023-03-03T02:11:13.857Z,20.30
2023-03-03T02:13:48.960Z,22.13
2023-03-03T02:16:19.306Z,21.08
2023-03-03T02:18:50.852Z,23.50
2023-03-03T02:21:28.831Z,22.45
2023-03-03T02:24:07.552Z,23.27
2023-03-03T02:26:40.122Z,23.58
2023-03-03T02:29:13.511Z,22.80
2023-03-03T02:31:44.720Z,22.45
2023-03-03T02:34:13.125Z,23.05
2023-03-03T02:36:45.263Z,23.70
2023-03-03T02:39:24.486Z,24.05
2023-03-03T02:42:10.043Z,27.10
2023-03-03T02:44:44.855Z,24.17
2023-03-03T02:47:13.086Z,23.95
2023-03-03T02:49:43.065Z,25.17
2023-03-03T02:52:11.995Z,25.40
2023-03-03T02:54:46.250Z,25.60
2023-03-03T02:57:15.202Z,24.42
2023-03-03T02:59:44.323Z,25.02
2023-03-03T03:02:18.355Z,26.02
2023-03-03T03:04:48.764Z,24.63
2023-03-03T03:07:25.908Z,26.90
2023-03-03T03:09:56.661Z,27.42
2023-03-03T03:12:26.157Z,27.50
2023-03-03T03:14:56.916Z,26.98
2023-03-03T03:17:26.044Z,26.13
2023-03-03T03:19:56.271Z,24.17
2023-03-03T03:22:26.637Z,26.80
2023-03-03T03:24:58.370Z,27.60
2023-03-03T03:27:26.261Z,26.02
2023-03-03T03:30:01.794Z,25.85
2023-03-03T03:32:34.340Z,30.42
2023-03-03T03:35:04.511Z,26.00
2023-03-03T03:37:33.974Z,27.02
2023-03-03T03:40:05.345Z,24.48
2023-03-03T03:42:34.789Z,26.33
2023-03-03T03:45:04.072Z,28.08
2023-03-03T03:47:33.161Z,29.02
2023-03-03T03:50:02.710Z,25.98
2023-03-03T03:52:31.973Z,24.27
2023-03-03T03:55:00.824Z,28.55
2023-03-03T03:57:33.734Z,28.25
2023-03-03T04:00:03.849Z,22.90
2023-03-03T04:02:54.020Z,26.02
2023-03-03T04:05:27.223Z,24.33
2023-03-03T04:08:00.243Z,27.42
2023-03-03T04:10:29.462Z,25.05
2023-03-03T04:13:01.304Z,23.95
2023-03-03T04:15:31.760Z,29.73
2023-03-03T04:18:01.632Z,23.17
2023-03-03T04:20:32.013Z,23.50
2023-03-03T04:23:00.286Z,22.45
2023-03-03T04:25:29.777Z,24.42
2023-03-03T04:27:57.751Z,22.08
2023-03-03T04:30:28.266Z,22.73
2023-03-03T04:32:59.553Z,28.52
2023-03-03T04:35:28.168Z,25.13
2023-03-03T04:38:00.918Z,26.67
2023-03-03T04:40:30.245Z,25.55
2023-03-03T04:43:00.941Z,28.95
2023-03-03T04:45:32.605Z,27.40
2023-03-03T04:48:02.026Z,28.50
2023-03-03T04:50:35.136Z,25.55
2023-03-03T04:53:07.955Z,27.60
2023-03-03T04:55:39.968Z,28.52
2023-03-03T04:58:11.890Z,27.25
2023-03-03T05:00:41.844Z,27.05
2023-03-03T05:03:13.820Z,30.25
2023-03-03T05:05:43.889Z,28.77
2023-03-03T05:08:14.363Z,24.88
2023-03-03T05:10:43.918Z,27.75
2023-03-03T05:13:16.081Z,26.83
2023-03-03T05:15:45.587Z,29.83
2023-03-03T05:18:14.894Z,30.58
2023-03-03T05:20:44.132Z,31.23
2023-03-03T05:23:14.120Z,29.40
2023-03-03T05:25:43.522Z,29.88
2023-03-03T05:28:14.256Z,30.95
2023-03-03T05:30:41.383Z,28.27
2023-03-03T05:33:09.152Z,26.67
2023-03-03T05:35:42.318Z,27.70
2023-03-03T05:38:12.502Z,25.25
2023-03-03T05:40:42.804Z,25.73
2023-03-03T05:43:14.436Z,29.77
2023-03-03T05:45:43.521Z,30.30
2023-03-03T05:48:13.845Z,29.88
2023-03-03T05:50:44.344Z,32.63
2023-03-03T05:53:15.969Z,30.33
2023-03-03T05:55:54.304Z,27.48
2023-03-03T05:58:24.373Z,24.48
2023-03-03T06:00:54.410Z,26.10
2023-03-03T06:03:24.582Z,26.55
2023-03-03T06:05:58.759Z,26.20
2023-03-03T06:08:39.923Z,27.67
2023-03-03T06:11:13.727Z,23.92
2023-03-03T06:13:45.318Z,22.67
2023-03-03T06:16:15.444Z,24.52
2023-03-03T06:18:47.201Z,23.80
2023-03-03T06:21:20.492Z,27.30
2023-03-03T06:23:50.452Z,24.13
2023-03-03T06:26:25.765Z,25.20
2023-03-03T06:28:55.800Z,25.90
2023-03-03T06:31:30.500Z,25.67
2023-03-03T06:34:00.609Z,29.63
2023-03-03T06:36:29.926Z,29.27
2023-03-03T06:38:59.333Z,27.45
2023-03-03T06:41:28.203Z,28.52
2023-03-03T06:43:58.782Z,28.85
2023-03-03T06:46:28.410Z,26.13
2023-03-03T06:48:57.658Z,31.13
2023-03-03T06:51:29.101Z,30.85
2023-03-03T06:54:00.350Z,31.38
2023-03-03T06:56:38.097Z,31.33
2023-03-03T06:59:19.016Z,29.33
2023-03-03T07:01:51.619Z,29.45
2023-03-03T07:04:35.699Z,25.08
2023-03-03T07:07:34.614Z,27.30
2023-03-03T07:10:22.491Z,26.38
2023-03-03T07:15:38.514Z,29.65
2023-03-03T07:18:32.779Z,21.25
2023-03-03T07:21:14.188Z,21.92
2023-03-03T07:23:45.283Z,22.80
2023-03-03T07:26:30.298Z,22.98
2023-03-03T07:29:11.172Z,23.65
2023-03-03T07:31:40.285Z,20.63
2023-03-03T07:34:22.714Z,24.88
2023-03-03T07:36:55.130Z,19.75
2023-03-03T07:39:40.285Z,20.88
2023-03-03T07:42:24.262Z,20.30
2023-03-03T07:45:06.499Z,20.15
2023-03-03T07:47:38.988Z,19.85
2023-03-03T07:50:20.965Z,18.38
2023-03-03T07:52:57.467Z,20.50
2023-03-03T07:55:31.860Z,20.55
2023-03-03T07:58:22.378Z,20.10
2023-03-03T08:01:27.423Z,23.83
2023-03-03T08:04:00.928Z,20.67
2023-03-03T08:06:37.009Z,20.35
2023-03-03T08:09:10.361Z,20.33
2023-03-03T08:11:59.336Z,20.92
2023-03-03T08:14:29.053Z,21.15
2023-03-03T08:16:59.794Z,21.70
2023-03-03T08:19:31.184Z,19.08
2023-03-03T08:22:10.072Z,17.45
2023-03-03T08:24:39.048Z,19.40
2023-03-03T08:27:08.337Z,17.25
2023-03-03T08:29:37.820Z,20.05
2023-03-03T08:32:05.400Z,19.25
2023-03-03T08:34:32.758Z,17.65
2023-03-03T08:36:59.898Z,18.05
2023-03-03T08:39:26.917Z,16.23
2023-03-03T08:41:54.151Z,16.20
2023-03-03T08:44:21.271Z,15.23
2023-03-03T08:46:50.273Z,16.23
2023-03-03T08:49:19.252Z,16.55
2023-03-03T08:51:47.048Z,18.38
2023-03-03T08:54:14.189Z,21.65
2023-03-03T08:56:41.353Z,20.60
2023-03-03T08:59:08.496Z,17.08
2023-03-03T09:01:39.595Z,18.02
2023-03-03T09:04:06.863Z,15.45
2023-03-03T09:06:34.026Z,14.32
2023-03-03T09:09:03.802Z,14.20
2023-03-03T09:11:32.782Z,16.33
2023-03-03T09:14:07.972Z,16.05
2023-03-03T09:16:40.506Z,16.63
2023-03-03T09:19:29.947Z,16.55
2023-03-03T09:22:19.092Z,17.02
2023-03-03T09:24:48.959Z,15.73
2023-03-03T09:27:39.234Z,13.55
2023-03-03T09:31:01.688Z,15.10
2023-03-03T09:33:35.835Z,14.73
2023-03-03T09:36:24.302Z,19.33
2023-03-03T09:38:53.357Z,17.38
2023-03-03T09:41:41.953Z,17.13
2023-03-03T09:44:17.927Z,15.90
2023-03-03T09:46:54.671Z,13.73
2023-03-03T09:49:28.876Z,16.77
2023-03-03T09:52:19.971Z,16.90
2023-03-03T09:55:14.910Z,16.15
2023-03-03T09:58:08.151Z,15.57
2023-03-03T10:00:55.052Z,14.55
2023-03-03T10:04:01.140Z,17.40
2023-03-03T10:07:15.697Z,20.85
2023-03-03T10:09:57.700Z,20.33
2023-03-03T10:12:51.622Z,18.67
2023-03-03T10:15:34.185Z,23.10
2023-03-03T10:18:13.767Z,18.83
2023-03-03T10:21:03.451Z,19.75
2023-03-03T10:24:27.583Z,19.60
2023-03-03T10:27:21.162Z,20.13
2023-03-03T10:30:39.842Z,21.30
2023-03-03T10:33:46.112Z,20.23
2023-03-03T10:36:26.006Z,20.55
2023-03-03T10:39:13.525Z,22.98
2023-03-03T10:41:51.211Z,20.58
2023-03-03T10:44:33.933Z,23.05
2023-03-03T10:47:08.432Z,20.48
2023-03-03T10:50:12.617Z,21.77
2023-03-03T10:53:17.278Z,23.73
2023-03-03T10:56:01.320Z,24.70
2023-03-03T10:58:56.216Z,24.27
2023-03-03T11:01:48.863Z,24.75
2023-03-03T11:04:26.356Z,25.45
2023-03-03T11:07:20.721Z,27.13
2023-03-03T11:10:02.417Z,28.15
2023-03-03T11:12:48.517Z,25.10
2023-03-03T11:15:32.067Z,26.95
2023-03-03T11:18:29.487Z,27.58
2023-03-03T11:21:09.544Z,23.63
2023-03-03T11:23:48.927Z,23.00
2023-03-03T11:26:30.612Z,26.42
2023-03-03T11:29:10.864Z,25.05
2023-03-03T11:31:44.989Z,23.88
2023-03-03T11:34:16.284Z,24.33
2023-03-03T11:36:51.391Z,23.98
2023-03-03T11:39:22.263Z,24.50
2023-03-03T11:42:04.740Z,26.08
2023-03-03T11:44:57.411Z,26.25
2023-03-03T11:47:51.584Z,26.60
2023-03-03T11:50:27.635Z,25.83
2023-03-03T11:53:17.241Z,27.30
2023-03-03T11:55:46.664Z,24.17
2023-03-03T11:58:32.400Z,27.08
2023-03-03T12:01:23.457Z,28.98
2023-03-03T12:03:57.777Z,28.17
2023-03-03T12:06:47.670Z,30.02
2023-03-03T12:09:57.866Z,28.60
2023-03-03T12:12:45.269Z,24.90
2023-03-03T12:15:16.430Z,26.42
2023-03-03T12:18:11.877Z,29.27
2023-03-03T12:21:11.536Z,28.20
2023-03-03T12:24:13.124Z,24.95
2023-03-03T12:27:03.257Z,26.40
2023-03-03T12:29:51.713Z,28.40
2023-03-03T12:32:23.619Z,28.98
2023-03-03T12:34:58.008Z,25.58
2023-03-03T12:37:49.486Z,27.23
2023-03-03T12:40:21.406Z,30.27
2023-03-03T12:43:24.426Z,28.05
2023-03-03T12:46:28.569Z,23.88
2023-03-03T12:48:59.609Z,27.52
2023-03-03T12:51:38.855Z,23.02
2023-03-03T12:54:26.577Z,26.23
2023-03-03T12:56:58.011Z,24.98
2023-03-03T13:00:17.693Z,27.15
2023-03-03T13:03:07.079Z,25.38
2023-03-03T13:05:40.258Z,22.30
2023-03-03T13:08:31.830Z,26.20
2023-03-03T13:11:32.196Z,21.17
2023-03-03T13:14:27.052Z,21.65
2023-03-03T13:17:13.837Z,20.83
2023-03-03T13:19:58.786Z,18.30
2023-03-03T13:22:39.651Z,20.23
2023-03-03T13:25:20.626Z,19.70
2023-03-03T13:27:52.574Z,22.38
2023-03-03T13:30:33.880Z,22.52
2023-03-03T13:33:18.841Z,22.55
2023-03-03T13:36:13.256Z,20.98
2023-03-03T13:38:57.546Z,20.73
2023-03-03T13:41:49.252Z,21.35
2023-03-03T13:44:49.579Z,22.80
2023-03-03T13:47:57.897Z,20.85
2023-03-03T13:50:51.485Z,22.58
2023-03-03T13:53:46.247Z,23.67
2023-03-03T13:56:24.857Z,23.90
2023-03-03T13:59:04.877Z,22.02
2023-03-03T14:01:58.617Z,24.70
2023-03-03T14:04:35.251Z,23.80
2023-03-03T14:07:12.022Z,22.65
2023-03-03T14:10:09.566Z,25.17
2023-03-03T14:13:00.447Z,21.67
2023-03-03T14:15:41.283Z,23.15
2023-03-03T14:18:23.919Z,19.70
2023-03-03T14:20:52.913Z,25.23
2023-03-03T14:23:57.585Z,21.40
2023-03-03T14:26:30.686Z,21.70
2023-03-03T14:29:24.939Z,20.35
2023-03-03T14:31:56.140Z,22.33
2023-03-03T14:34:24.784Z,21.95
2023-03-03T14:36:54.285Z,25.67
2023-03-03T14:39:39.789Z,22.35
2023-03-03T14:42:32.497Z,22.75
2023-03-03T14:45:05.379Z,22.48
2023-03-03T14:47:36.020Z,23.38
2023-03-03T14:50:40.595Z,23.35
2023-03-03T14:53:14.097Z,21.25
2023-03-03T14:55:44.995Z,19.88
2023-03-03T14:58:39.650Z,25.80
2023-03-03T15:01:15.002Z,21.45
2023-03-03T15:03:50.547Z,23.80
2023-03-03T15:06:46.411Z,21.15
2023-03-03T15:09:31.758Z,19.95
2023-03-03T15:12:07.174Z,20.30
2023-03-03T15:14:45.061Z,24.98
2023-03-03T15:17:20.800Z,20.10
2023-03-03T15:19:56.401Z,19.90
2023-03-03T15:22:51.334Z,22.08
2023-03-03T15:25:43.491Z,20.95
2023-03-03T15:28:37.470Z,23.90
2023-03-03T15:32:10.675Z,21.42
2023-03-03T15:34:47.643Z,19.45
2023-03-03T15:37:28.918Z,22.20
2023-03-03T15:40:07.452Z,19.67
2023-03-03T15:42:51.889Z,21.27
2023-03-03T15:45:57.392Z,21.38
2023-03-03T15:48:51.962Z,24.77
2023-03-03T15:51:50.821Z,19.70
2023-03-03T15:54:44.456Z,21.98
2023-03-03T15:57:35.163Z,19.77
2023-03-03T16:00:35.623Z,23.10
2023-03-03T16:03:14.039Z,20.25
2023-03-03T16:05:51.477Z,22.00
2023-03-03T16:08:35.693Z,21.27
2023-03-03T16:11:29.615Z,22.33
2023-03-03T16:14:34.729Z,22.02
2023-03-03T16:17:22.945Z,21.83
2023-03-03T16:20:00.445Z,21.55
2023-03-03T16:22:57.990Z,21.48
2023-03-03T16:25:56.443Z,19.50
2023-03-03T16:28:29.171Z,19.17
2023-03-03T16:31:13.504Z,19.00
2023-03-03T16:34:17.730Z,26.35
2023-03-03T16:37:08.264Z,21.90
2023-03-03T16:39:42.998Z,22.33
2023-03-03T16:42:31.093Z,21.23
2023-03-03T16:45:11.726Z,21.88
2023-03-03T16:48:00.721Z,18.50
2023-03-03T16:50:56.409Z,19.13
2023-03-03T16:53:46.107Z,19.17
2023-03-03T16:56:29.880Z,19.38
2023-03-03T16:59:33.436Z,19.50
2023-03-03T17:02:41.172Z,20.88
2023-03-03T17:05:47.368Z,20.88
2023-03-03T17:08:49.404Z,22.50
2023-03-03T17:11:53.203Z,23.90
2023-03-03T17:14:35.144Z,20.17
2023-03-03T17:17:29.970Z,18.63
2023-03-03T17:20:24.798Z,20.90
2023-03-03T17:23:01.290Z,20.30
2023-03-03T17:25:47.236Z,16.88
2023-03-03T17:28:40.132Z,20.00
2023-03-03T17:31:17.639Z,17.67
2023-03-03T17:34:09.841Z,19.42
2023-03-03T17:36:51.733Z,19.35
2023-03-03T17:39:38.093Z,18.88
2023-03-03T17:42:24.455Z,20.98
2023-03-03T17:45:13.528Z,20.83
2023-03-03T17:48:18.643Z,19.65
2023-03-03T17:51:15.763Z,20.38
2023-03-03T17:54:10.492Z,20.10
2023-03-03T17:57:24.276Z,17.27
2023-03-03T17:59:58.841Z,19.60
2023-03-03T18:02:52.250Z,17.85
2023-03-03T18:05:39.878Z,20.08
2023-03-03T18:08:23.398Z,20.23
2023-03-03T18:11:15.430Z,20.50
2023-03-03T18:14:16.133Z,19.90
2023-03-03T18:16:58.560Z,21.73
2023-03-03T18:20:03.064Z,22.88
2023-03-03T18:22:32.756Z,21.95
2023-03-03T18:25:09.679Z,21.92
2023-03-03T18:27:40.288Z,24.83
2023-03-03T18:30:24.994Z,25.10
2023-03-03T18:32:59.384Z,21.17
2023-03-03T18:35:46.695Z,21.92
2023-03-03T18:38:17.607Z,22.08
2023-03-03T18:41:14.498Z,24.23
2023-03-03T18:43:52.318Z,22.38
2023-03-03T18:46:27.482Z,20.50
2023-03-03T18:49:10.883Z,26.23
2023-03-03T18:51:41.054Z,23.73
2023-03-03T18:54:30.572Z,23.30
2023-03-03T18:56:58.332Z,23.95
2023-03-03T18:59:35.910Z,23.45
2023-03-03T19:02:39.890Z,23.42
2023-03-03T19:05:27.626Z,24.83
2023-03-03T19:08:03.536Z,22.33
2023-03-03T19:10:40.426Z,24.55
2023-03-03T19:13:34.978Z,23.33
2023-03-03T19:16:08.590Z,24.70
2023-03-03T19:18:43.306Z,24.25
2023-03-03T19:21:28.910Z,24.27
2023-03-03T19:24:03.804Z,24.92
2023-03-03T19:26:46.960Z,27.45
2023-03-03T19:29:22.733Z,29.02
2023-03-03T19:32:09.341Z,25.48
2023-03-03T19:34:44.321Z,24.23
2023-03-03T19:37:53.917Z,24.13
2023-03-03T19:40:41.613Z,22.38
2023-03-03T19:43:45.810Z,24.20
2023-03-03T19:46:26.892Z,22.83
2023-03-03T19:49:03.430Z,24.58
2023-03-03T19:51:36.156Z,23.90
2023-03-03T19:54:13.217Z,28.77
2023-03-03T19:56:47.194Z,26.50
2023-03-03T19:59:48.675Z,24.77
2023-03-03T20:02:57.012Z,25.05
2023-03-03T20:05:46.441Z,23.58
2023-03-03T20:08:45.398Z,27.65
2023-03-03T20:11:48.964Z,25.05
2023-03-03T20:14:27.143Z,25.90
2023-03-03T20:16:58.224Z,25.10
2023-03-03T20:19:29.466Z,23.35
2023-03-03T20:22:26.270Z,23.05
2023-03-03T20:25:14.259Z,23.65
2023-03-03T20:27:58.103Z,28.58
2023-03-03T20:30:32.556Z,23.33
2023-03-03T20:33:17.047Z,26.38
2023-03-03T20:35:50.678Z,26.95
2023-03-03T20:38:32.281Z,22.58
2023-03-03T20:41:18.362Z,22.73
2023-03-03T20:44:05.996Z,24.95
2023-03-03T20:47:03.888Z,20.42
2023-03-03T20:50:16.131Z,24.40
2023-03-03T20:52:52.094Z,24.08
2023-03-03T20:55:35.068Z,20.92
2023-03-03T20:58:11.145Z,21.17
2023-03-03T21:00:50.625Z,19.98
2023-03-03T21:03:38.847Z,20.42
2023-03-03T21:06:18.182Z,19.25
2023-03-03T21:08:50.103Z,20.50
2023-03-03T21:11:19.982Z,21.27
2023-03-03T21:13:54.351Z,22.20
2023-03-03T21:16:22.098Z,19.08
2023-03-03T21:19:15.431Z,20.70
2023-03-03T21:21:47.408Z,22.25
2023-03-03T21:24:19.778Z,23.30
2023-03-03T21:26:59.550Z,19.73
2023-03-03T21:29:33.956Z,24.02
2023-03-03T21:32:09.196Z,21.10
2023-03-03T21:34:38.585Z,23.23
2023-03-03T21:37:11.527Z,26.33
2023-03-03T21:39:44.163Z,23.00
2023-03-03T21:42:14.684Z,23.95
2023-03-03T21:44:49.203Z,22.88
2023-03-03T21:47:20.929Z,24.77
2023-03-03T21:49:51.680Z,26.52
2023-03-03T21:52:21.134Z,24.95
2023-03-03T21:54:51.047Z,25.92
2023-03-03T21:57:20.173Z,27.80
2023-03-03T21:59:51.257Z,26.55
2023-03-03T22:02:18.394Z,28.05
2023-03-03T22:04:45.760Z,32.72
2023-03-03T22:07:14.088Z,30.98
2023-03-03T22:09:41.188Z,32.67
2023-03-03T22:12:09.371Z,32.85
2023-03-03T22:14:36.785Z,30.42
2023-03-03T22:17:04.019Z,35.20
2023-03-03T22:19:31.477Z,38.83
2023-03-03T22:21:58.529Z,33.85
2023-03-03T22:24:25.472Z,31.85
2023-03-03T22:26:52.606Z,36.08
2023-03-03T22:29:23.157Z,35.63
2023-03-03T22:31:51.793Z,33.22
2023-03-03T22:34:19.192Z,35.83
2023-03-03T22:36:46.185Z,33.60
2023-03-03T22:39:13.247Z,36.25
2023-03-03T22:41:40.424Z,35.50
2023-03-03T22:44:07.535Z,34.40
2023-03-03T22:46:34.627Z,38.88
2023-03-03T22:49:01.844Z,35.55
2023-03-03T22:51:28.870Z,35.35
2023-03-03T22:53:55.973Z,31.83
2023-03-03T22:56:24.359Z,36.42
2023-03-03T22:58:52.646Z,36.60
2023-03-03T23:01:21.663Z,38.33
2023-03-03T23:03:50.375Z,35.28
2023-03-03T23:06:18.468Z,38.30
2023-03-03T23:08:47.205Z,32.85
2023-03-03T23:11:15.495Z,32.70
2023-03-03T23:13:43.563Z,36.90
2023-03-03T23:16:12.677Z,36.75
2023-03-03T23:18:41.580Z,32.85
2023-03-03T23:21:10.587Z,33.83
2023-03-03T23:23:38.533Z,39.65
2023-03-03T23:26:06.093Z,34.00
2023-03-03T23:28:34.815Z,34.90
2023-03-03T23:31:04.142Z,36.60
2023-03-03T23:33:32.542Z,35.60
2023-03-03T23:36:01.759Z,34.10
2023-03-03T23:38:30.707Z,30.88
2023-03-03T23:41:00.341Z,35.20
2023-03-03T23:43:27.870Z,33.38
2023-03-03T23:45:55.065Z,30.17
2023-03-03T23:48:23.421Z,33.83
2023-03-03T23:50:51.469Z,37.40
2023-03-03T23:53:20.078Z,32.42
2023-03-03T23:55:47.185Z,35.78
2023-03-03T23:58:14.194Z,41.00
